sensor_id;sensor_type;location;lat;lon;timestamp;pressure;altitude;pressure_sealevel;temperature;humidity
41513;BME280;27244;59.940;30.280;2024-01-11T00:02:05;99789.94;;;25.43;28.94
41513;BME280;27244;59.940;30.280;2024-01-11T00:04:33;99783.22;;;25.41;28.66
41513;BME280;27244;59.940;30.280;2024-01-11T00:07:00;99780.09;;;25.39;28.40
41513;BME280;27244;59.940;30.280;2024-01-11T00:09:27;99785.25;;;25.40;28.37
41513;BME280;27244;59.940;30.280;2024-01-11T00:11:54;99786.50;;;25.39;28.40
41513;BME280;27244;59.940;30.280;2024-01-11T00:14:21;99782.16;;;25.38;28.17
41513;BME280;27244;59.940;30.280;2024-01-11T00:16:48;99796.25;;;25.38;28.04
41513;BME280;27244;59.940;30.280;2024-01-11T00:19:16;99783.88;;;25.36;27.92
41513;BME280;27244;59.940;30.280;2024-01-11T00:21:43;99792.34;;;25.36;27.42
41513;BME280;27244;59.940;30.280;2024-01-11T00:24:10;99776.19;;;25.36;27.76
41513;BME280;27244;59.940;30.280;2024-01-11T00:26:37;99779.34;;;25.29;27.32
41513;BME280;27244;59.940;30.280;2024-01-11T00:29:04;99775.56;;;25.32;27.58
41513;BME280;27244;59.940;30.280;2024-01-11T00:31:32;99787.66;;;25.33;26.97
41513;BME280;27244;59.940;30.280;2024-01-11T00:33:59;99779.69;;;25.31;27.24
41513;BME280;27244;59.940;30.280;2024-01-11T00:36:28;99796.63;;;25.31;27.29
41513;BME280;27244;59.940;30.280;2024-01-11T00:38:55;99794.75;;;25.28;26.98
41513;BME280;27244;59.940;30.280;2024-01-11T00:41:22;99791.94;;;25.28;27.26
41513;BME280;27244;59.940;30.280;2024-01-11T00:43:49;99784.22;;;25.29;26.92
41513;BME280;27244;59.940;30.280;2024-01-11T00:46:16;99800.41;;;25.28;26.65
41513;BME280;27244;59.940;30.280;2024-01-11T00:48:43;99790.53;;;25.24;26.99
41513;BME280;27244;59.940;30.280;2024-01-11T00:51:10;99788.00;;;25.26;27.06
41513;BME280;27244;59.940;30.280;2024-01-11T00:53:38;99805.25;;;25.28;26.69
41513;BME280;27244;59.940;30.280;2024-01-11T00:56:05;99802.13;;;25.26;26.52
41513;BME280;27244;59.940;30.280;2024-01-11T00:58:41;99805.44;;;25.24;26.57
41513;BME280;27244;59.940;30.280;2024-01-11T01:01:09;99813.41;;;25.26;26.89
41513;BME280;27244;59.940;30.280;2024-01-11T01:03:36;99811.09;;;25.24;26.29
41513;BME280;27244;59.940;30.280;2024-01-11T01:06:03;99802.28;;;25.22;26.40
41513;BME280;27244;59.940;30.280;2024-01-11T01:08:30;99812.34;;;25.23;26.54
41513;BME280;27244;59.940;30.280;2024-01-11T01:10:59;99796.19;;;25.24;26.34
41513;BME280;27244;59.940;30.280;2024-01-11T01:13:26;99818.75;;;25.24;25.99
41513;BME280;27244;59.940;30.280;2024-01-11T01:15:53;99812.03;;;25.21;26.02
41513;BME280;27244;59.940;30.280;2024-01-11T01:18:20;99826.91;;;25.22;26.17
41513;BME280;27244;59.940;30.280;2024-01-11T01:20:47;99831.31;;;25.23;25.93
41513;BME280;27244;59.940;30.280;2024-01-11T01:23:14;99826.78;;;25.16;26.08
41513;BME280;27244;59.940;30.280;2024-01-11T01:25:42;99828.19;;;25.21;25.76
41513;BME280;27244;59.940;30.280;2024-01-11T01:28:10;99835.38;;;25.22;25.89
41513;BME280;27244;59.940;30.280;2024-01-11T01:30:37;99846.66;;;25.22;25.59
41513;BME280;27244;59.940;30.280;2024-01-11T01:33:04;99840.72;;;25.20;26.04
41513;BME280;27244;59.940;30.280;2024-01-11T01:35:31;99837.59;;;25.18;25.52
41513;BME280;27244;59.940;30.280;2024-01-11T01:38:00;99849.19;;;25.20;25.52
41513;BME280;27244;59.940;30.280;2024-01-11T01:40:29;99836.66;;;25.21;25.35
41513;BME280;27244;59.940;30.280;2024-01-11T01:43:00;99838.69;;;25.20;25.33
41513;BME280;27244;59.940;30.280;2024-01-11T01:45:28;99841.97;;;25.19;25.59
41513;BME280;27244;59.940;30.280;2024-01-11T01:47:55;99838.38;;;25.18;25.65
41513;BME280;27244;59.940;30.280;2024-01-11T01:50:23;99840.41;;;25.18;25.45
41513;BME280;27244;59.940;30.280;2024-01-11T01:52:50;99841.19;;;25.18;25.13
41513;BME280;27244;59.940;30.280;2024-01-11T01:55:18;99843.56;;;25.20;25.43
41513;BME280;27244;59.940;30.280;2024-01-11T01:57:46;99843.72;;;25.16;25.29
41513;BME280;27244;59.940;30.280;2024-01-11T02:00:14;99848.88;;;25.18;25.20
41513;BME280;27244;59.940;30.280;2024-01-11T02:02:44;99866.13;;;25.20;25.03
41513;BME280;27244;59.940;30.280;2024-01-11T02:05:12;99873.69;;;25.14;25.39
41513;BME280;27244;59.940;30.280;2024-01-11T02:07:40;99904.25;;;25.15;25.04
41513;BME280;27244;59.940;30.280;2024-01-11T02:10:08;99919.44;;;25.18;24.90
41513;BME280;27244;59.940;30.280;2024-01-11T02:12:35;99911.91;;;25.15;24.95
41513;BME280;27244;59.940;30.280;2024-01-11T02:15:04;99914.28;;;25.16;25.15
41513;BME280;27244;59.940;30.280;2024-01-11T02:17:31;99918.53;;;25.12;25.25
41513;BME280;27244;59.940;30.280;2024-01-11T02:20:00;99924.00;;;25.15;25.21
41513;BME280;27244;59.940;30.280;2024-01-11T02:22:32;99923.53;;;25.17;25.20
41513;BME280;27244;59.940;30.280;2024-01-11T02:25:02;99925.25;;;25.14;25.09
41513;BME280;27244;59.940;30.280;2024-01-11T02:27:30;99932.63;;;25.12;24.73
41513;BME280;27244;59.940;30.280;2024-01-11T02:29:57;99940.63;;;25.13;24.90
41513;BME280;27244;59.940;30.280;2024-01-11T02:32:24;99937.03;;;25.13;24.41
41513;BME280;27244;59.940;30.280;2024-01-11T02:34:51;99956.78;;;25.13;24.79
41513;BME280;27244;59.940;30.280;2024-01-11T02:37:18;99949.25;;;25.10;24.53
41513;BME280;27244;59.940;30.280;2024-01-11T02:39:45;99939.53;;;25.11;24.42
41513;BME280;27244;59.940;30.280;2024-01-11T02:42:14;99966.50;;;25.12;24.34
41513;BME280;27244;59.940;30.280;2024-01-11T02:44:41;99961.34;;;25.10;24.49
41513;BME280;27244;59.940;30.280;2024-01-11T02:47:08;99965.41;;;25.09;24.42
41513;BME280;27244;59.940;30.280;2024-01-11T02:49:35;99984.38;;;25.09;24.13
41513;BME280;27244;59.940;30.280;2024-01-11T02:52:03;99982.00;;;25.07;24.30
41513;BME280;27244;59.940;30.280;2024-01-11T02:54:30;99991.25;;;25.08;24.16
41513;BME280;27244;59.940;30.280;2024-01-11T02:56:57;99990.19;;;25.05;23.79
41513;BME280;27244;59.940;30.280;2024-01-11T02:59:26;100017.16;;;25.06;24.18
41513;BME280;27244;59.940;30.280;2024-01-11T03:01:53;100024.50;;;25.04;24.20
41513;BME280;27244;59.940;30.280;2024-01-11T03:04:20;100019.66;;;25.04;23.75
41513;BME280;27244;59.940;30.280;2024-01-11T03:06:47;100049.59;;;25.02;23.71
41513;BME280;27244;59.940;30.280;2024-01-11T03:09:14;100043.97;;;25.02;23.87
41513;BME280;27244;59.940;30.280;2024-01-11T03:11:41;100048.03;;;25.01;23.50
41513;BME280;27244;59.940;30.280;2024-01-11T03:14:08;100060.09;;;25.01;23.30
41513;BME280;27244;59.940;30.280;2024-01-11T03:16:36;100064.50;;;25.02;23.50
41513;BME280;27244;59.940;30.280;2024-01-11T03:19:05;100043.50;;;24.85;23.29
41513;BME280;27244;59.940;30.280;2024-01-11T03:21:32;100064.94;;;25.01;22.94
41513;BME280;27244;59.940;30.280;2024-01-11T03:23:59;100067.63;;;24.95;23.20
41513;BME280;27244;59.940;30.280;2024-01-11T03:26:26;100081.88;;;25.01;22.96
41513;BME280;27244;59.940;30.280;2024-01-11T03:28:53;100085.97;;;25.00;22.57
41513;BME280;27244;59.940;30.280;2024-01-11T03:31:20;100098.03;;;25.00;22.77
41513;BME280;27244;59.940;30.280;2024-01-11T03:33:49;100110.09;;;25.01;22.97
41513;BME280;27244;59.940;30.280;2024-01-11T03:36:16;100112.91;;;25.01;22.53
41513;BME280;27244;59.940;30.280;2024-01-11T03:38:44;100111.38;;;25.00;22.40
41513;BME280;27244;59.940;30.280;2024-01-11T03:41:11;100133.63;;;24.97;22.76
41513;BME280;27244;59.940;30.280;2024-01-11T03:43:38;100130.00;;;24.97;22.26
41513;BME280;27244;59.940;30.280;2024-01-11T03:46:05;100120.28;;;24.98;22.53
41513;BME280;27244;59.940;30.280;2024-01-11T03:48:32;100130.78;;;24.97;22.32
41513;BME280;27244;59.940;30.280;2024-01-11T03:51:03;100135.66;;;24.97;22.15
41513;BME280;27244;59.940;30.280;2024-01-11T03:53:30;100153.69;;;25.00;22.28
41513;BME280;27244;59.940;30.280;2024-01-11T03:55:57;100147.41;;;24.95;22.20
41513;BME280;27244;59.940;30.280;2024-01-11T03:58:24;100155.09;;;24.95;22.05
41513;BME280;27244;59.940;30.280;2024-01-11T04:00:52;100165.25;;;24.92;21.95
41513;BME280;27244;59.940;30.280;2024-01-11T04:03:19;100161.81;;;24.88;22.13
41513;BME280;27244;59.940;30.280;2024-01-11T04:05:46;100186.28;;;24.91;22.29
41513;BME280;27244;59.940;30.280;2024-01-11T04:08:15;100171.84;;;24.89;22.02
41513;BME280;27244;59.940;30.280;2024-01-11T04:10:42;100170.44;;;24.85;21.97
41513;BME280;27244;59.940;30.280;2024-01-11T04:13:09;100191.28;;;24.87;21.73
41513;BME280;27244;59.940;30.280;2024-01-11T04:15:36;100208.22;;;24.87;21.85
41513;BME280;27244;59.940;30.280;2024-01-11T04:18:04;100199.53;;;24.82;21.87
41513;BME280;27244;59.940;30.280;2024-01-11T04:20:31;100222.47;;;24.84;21.73
41513;BME280;27244;59.940;30.280;2024-01-11T04:22:58;100221.34;;;24.81;21.82
41513;BME280;27244;59.940;30.280;2024-01-11T04:25:26;100224.03;;;24.85;21.72
41513;BME280;27244;59.940;30.280;2024-01-11T04:27:53;100236.72;;;24.89;22.12
41513;BME280;27244;59.940;30.280;2024-01-11T04:30:20;100240.69;;;25.01;20.96
41513;BME280;27244;59.940;30.280;2024-01-11T04:32:47;100245.75;;;25.06;20.62
41513;BME280;27244;59.940;30.280;2024-01-11T04:35:14;100244.97;;;25.15;20.42
41513;BME280;27244;59.940;30.280;2024-01-11T04:37:42;100254.72;;;25.23;20.29
41513;BME280;27244;59.940;30.280;2024-01-11T04:40:09;100261.78;;;25.27;19.92
41513;BME280;27244;59.940;30.280;2024-01-11T04:42:38;100272.00;;;25.34;19.65
41513;BME280;27244;59.940;30.280;2024-01-11T04:45:05;100270.25;;;25.36;19.50
41513;BME280;27244;59.940;30.280;2024-01-11T04:47:32;100279.53;;;25.37;19.51
41513;BME280;27244;59.940;30.280;2024-01-11T04:50:00;100284.09;;;25.43;19.55
41513;BME280;27244;59.940;30.280;2024-01-11T04:52:27;100300.06;;;25.37;20.32
41513;BME280;27244;59.940;30.280;2024-01-11T04:54:54;100293.63;;;25.28;21.30
41513;BME280;27244;59.940;30.280;2024-01-11T04:57:21;100305.22;;;25.21;22.06
41513;BME280;27244;59.940;30.280;2024-01-11T04:59:49;100334.03;;;25.16;22.54
41513;BME280;27244;59.940;30.280;2024-01-11T05:02:16;100307.69;;;25.10;23.27
41513;BME280;27244;59.940;30.280;2024-01-11T05:04:44;100321.16;;;25.06;23.56
41513;BME280;27244;59.940;30.280;2024-01-11T05:07:11;100332.56;;;25.02;24.04
41513;BME280;27244;59.940;30.280;2024-01-11T05:09:38;100335.84;;;25.01;24.28
41513;BME280;27244;59.940;30.280;2024-01-11T05:12:06;100337.56;;;24.98;24.63
41513;BME280;27244;59.940;30.280;2024-01-11T05:14:34;100346.50;;;24.96;24.83
41513;BME280;27244;59.940;30.280;2024-01-11T05:17:02;100365.94;;;24.94;25.11
41513;BME280;27244;59.940;30.280;2024-01-11T05:19:29;100359.19;;;24.92;25.67
41513;BME280;27244;59.940;30.280;2024-01-11T05:21:56;100366.06;;;24.91;25.71
41513;BME280;27244;59.940;30.280;2024-01-11T05:24:23;100369.34;;;24.89;26.29
41513;BME280;27244;59.940;30.280;2024-01-11T05:26:51;100368.41;;;24.92;26.03
41513;BME280;27244;59.940;30.280;2024-01-11T05:29:18;100396.63;;;24.92;25.90
41513;BME280;27244;59.940;30.280;2024-01-11T05:31:45;100389.44;;;24.91;25.67
41513;BME280;27244;59.940;30.280;2024-01-11T05:34:14;100393.22;;;24.97;26.33
41513;BME280;27244;59.940;30.280;2024-01-11T05:36:41;100393.22;;;24.97;25.95
41513;BME280;27244;59.940;30.280;2024-01-11T05:39:08;100402.47;;;24.98;26.27
41513;BME280;27244;59.940;30.280;2024-01-11T05:41:35;100416.13;;;25.00;26.35
41513;BME280;27244;59.940;30.280;2024-01-11T05:44:02;100424.91;;;25.02;26.83
41513;BME280;27244;59.940;30.280;2024-01-11T05:46:30;100437.00;;;25.02;27.24
41513;BME280;27244;59.940;30.280;2024-01-11T05:48:57;100435.63;;;25.07;27.56
41513;BME280;27244;59.940;30.280;2024-01-11T05:51:26;100438.75;;;25.09;27.53
41513;BME280;27244;59.940;30.280;2024-01-11T05:53:53;100435.47;;;25.10;27.99
41513;BME280;27244;59.940;30.280;2024-01-11T05:56:21;100446.28;;;25.12;28.00
41513;BME280;27244;59.940;30.280;2024-01-11T05:58:48;100452.72;;;25.12;27.83
41513;BME280;27244;59.940;30.280;2024-01-11T06:01:15;100460.41;;;25.12;27.71
41513;BME280;27244;59.940;30.280;2024-01-11T06:03:42;100463.22;;;25.12;27.78
41513;BME280;27244;59.940;30.280;2024-01-11T06:06:09;100481.41;;;25.11;27.63
41513;BME280;27244;59.940;30.280;2024-01-11T06:08:38;100482.19;;;25.11;27.69
41513;BME280;27244;59.940;30.280;2024-01-11T06:11:05;100491.94;;;25.10;27.67
41513;BME280;27244;59.940;30.280;2024-01-11T06:13:33;100506.81;;;25.11;27.79
41513;BME280;27244;59.940;30.280;2024-01-11T06:16:00;100502.44;;;25.10;27.51
41513;BME280;27244;59.940;30.280;2024-01-11T06:18:27;100512.94;;;25.09;27.82
41513;BME280;27244;59.940;30.280;2024-01-11T06:20:54;100511.03;;;25.06;27.80
41513;BME280;27244;59.940;30.280;2024-01-11T06:23:21;100527.03;;;25.09;27.47
41513;BME280;27244;59.940;30.280;2024-01-11T06:25:49;100530.66;;;25.10;27.56
41513;BME280;27244;59.940;30.280;2024-01-11T06:28:16;100540.34;;;25.09;27.66
41513;BME280;27244;59.940;30.280;2024-01-11T06:30:43;100549.63;;;25.09;27.73
41513;BME280;27244;59.940;30.280;2024-01-11T06:33:10;100568.59;;;25.09;27.70
41513;BME280;27244;59.940;30.280;2024-01-11T06:35:38;100555.72;;;25.08;27.66
41513;BME280;27244;59.940;30.280;2024-01-11T06:38:05;100568.25;;;25.07;27.58
41513;BME280;27244;59.940;30.280;2024-01-11T06:40:33;100582.38;;;25.07;27.52
41513;BME280;27244;59.940;30.280;2024-01-11T06:43:01;100591.16;;;25.09;27.80
41513;BME280;27244;59.940;30.280;2024-01-11T06:45:28;100591.97;;;25.09;27.86
41513;BME280;27244;59.940;30.280;2024-01-11T06:47:56;100602.44;;;25.09;27.72
41513;BME280;27244;59.940;30.280;2024-01-11T06:50:23;100607.31;;;25.08;27.85
41513;BME280;27244;59.940;30.280;2024-01-11T06:52:50;100608.09;;;25.09;27.60
41513;BME280;27244;59.940;30.280;2024-01-11T06:55:17;100608.22;;;25.05;27.77
41513;BME280;27244;59.940;30.280;2024-01-11T06:57:46;100620.97;;;25.10;27.48
41513;BME280;27244;59.940;30.280;2024-01-11T07:00:16;100622.53;;;25.11;27.57
41513;BME280;27244;59.940;30.280;2024-01-11T07:02:43;100623.78;;;25.10;27.87
41513;BME280;27244;59.940;30.280;2024-01-11T07:05:10;100625.34;;;25.11;27.90
41513;BME280;27244;59.940;30.280;2024-01-11T07:07:38;100634.63;;;25.11;27.76
41513;BME280;27244;59.940;30.280;2024-01-11T07:10:06;100636.50;;;25.14;27.85
41513;BME280;27244;59.940;30.280;2024-01-11T07:12:34;100633.06;;;25.10;27.91
41513;BME280;27244;59.940;30.280;2024-01-11T07:15:03;100649.06;;;25.13;27.69
41513;BME280;27244;59.940;30.280;2024-01-11T07:17:35;100647.50;;;25.12;27.93
41513;BME280;27244;59.940;30.280;2024-01-11T07:20:02;100671.66;;;25.13;27.86
41513;BME280;27244;59.940;30.280;2024-01-11T07:22:32;100661.28;;;25.10;27.55
41513;BME280;27244;59.940;30.280;2024-01-11T07:24:59;100670.06;;;25.12;27.73
41513;BME280;27244;59.940;30.280;2024-01-11T07:27:26;100662.03;;;25.11;27.54
41513;BME280;27244;59.940;30.280;2024-01-11T07:29:53;100670.63;;;25.07;27.99
41513;BME280;27244;59.940;30.280;2024-01-11T07:32:20;100676.63;;;25.09;27.74
41513;BME280;27244;59.940;30.280;2024-01-11T07:34:49;100675.41;;;25.10;27.97
41513;BME280;27244;59.940;30.280;2024-01-11T07:37:16;100674.59;;;25.10;28.03
41513;BME280;27244;59.940;30.280;2024-01-11T07:39:43;100682.28;;;25.09;27.97
41513;BME280;27244;59.940;30.280;2024-01-11T07:42:10;100690.75;;;25.09;27.67
41513;BME280;27244;59.940;30.280;2024-01-11T07:44:37;100697.06;;;25.13;27.61
41513;BME280;27244;59.940;30.280;2024-01-11T07:47:04;100694.34;;;25.10;27.56
41513;BME280;27244;59.940;30.280;2024-01-11T07:49:32;100695.91;;;25.11;27.81
41513;BME280;27244;59.940;30.280;2024-01-11T07:52:00;100692.66;;;25.12;27.60
41513;BME280;27244;59.940;30.280;2024-01-11T07:54:27;100707.22;;;25.11;27.78
41513;BME280;27244;59.940;30.280;2024-01-11T07:56:54;100708.78;;;25.12;27.78
41513;BME280;27244;59.940;30.280;2024-01-11T07:59:21;100711.19;;;25.13;27.80
41513;BME280;27244;59.940;30.280;2024-01-11T08:01:48;100709.91;;;25.14;27.81
41513;BME280;27244;59.940;30.280;2024-01-11T08:04:16;100718.84;;;25.13;27.65
41513;BME280;27244;59.940;30.280;2024-01-11T08:06:43;100722.00;;;25.15;27.64
41513;BME280;27244;59.940;30.280;2024-01-11T08:09:11;100722.00;;;25.15;27.81
41513;BME280;27244;59.940;30.280;2024-01-11T08:11:39;100724.81;;;25.15;27.91
41513;BME280;27244;59.940;30.280;2024-01-11T08:14:06;100729.22;;;25.16;27.78
41513;BME280;27244;59.940;30.280;2024-01-11T08:16:34;100720.88;;;25.12;27.59
41513;BME280;27244;59.940;30.280;2024-01-11T08:19:01;100714.78;;;25.14;27.99
41513;BME280;27244;59.940;30.280;2024-01-11T08:21:29;100715.56;;;25.14;28.00
41513;BME280;27244;59.940;30.280;2024-01-11T08:23:56;100737.38;;;25.14;27.87
41513;BME280;27244;59.940;30.280;2024-01-11T08:26:26;100742.53;;;25.15;27.90
41513;BME280;27244;59.940;30.280;2024-01-11T08:28:54;100740.84;;;25.18;27.58
41513;BME280;27244;59.940;30.280;2024-01-11T08:31:21;100743.34;;;25.16;27.52
41513;BME280;27244;59.940;30.280;2024-01-11T08:33:48;100765.00;;;25.19;27.82
41513;BME280;27244;59.940;30.280;2024-01-11T08:36:15;100749.91;;;25.13;27.97
41513;BME280;27244;59.940;30.280;2024-01-11T08:38:42;100758.25;;;25.16;27.63
41513;BME280;27244;59.940;30.280;2024-01-11T08:41:09;100771.44;;;25.19;27.77
41513;BME280;27244;59.940;30.280;2024-01-11T08:43:38;100763.78;;;25.20;27.56
41513;BME280;27244;59.940;30.280;2024-01-11T08:46:06;100750.09;;;25.18;27.59
41513;BME280;27244;59.940;30.280;2024-01-11T08:48:33;100771.44;;;25.19;27.71
41513;BME280;27244;59.940;30.280;2024-01-11T08:51:00;100769.41;;;25.20;27.53
41513;BME280;27244;59.940;30.280;2024-01-11T08:53:27;100779.13;;;25.19;27.87
41513;BME280;27244;59.940;30.280;2024-01-11T08:55:54;100777.53;;;25.18;27.70
41513;BME280;27244;59.940;30.280;2024-01-11T08:58:21;100778.34;;;25.18;27.60
41513;BME280;27244;59.940;30.280;2024-01-11T09:00:50;100785.56;;;25.19;27.66
41513;BME280;27244;59.940;30.280;2024-01-11T09:03:17;100784.44;;;25.17;28.03
41513;BME280;27244;59.940;30.280;2024-01-11T09:05:44;100793.25;;;25.19;28.04
41513;BME280;27244;59.940;30.280;2024-01-11T09:08:11;100794.47;;;25.18;27.72
41513;BME280;27244;59.940;30.280;2024-01-11T09:10:38;100801.38;;;25.17;27.70
41513;BME280;27244;59.940;30.280;2024-01-11T09:13:07;100802.19;;;25.17;28.02
41513;BME280;27244;59.940;30.280;2024-01-11T09:15:36;100802.75;;;25.12;27.92
41513;BME280;27244;59.940;30.280;2024-01-11T09:18:05;100820.69;;;25.18;27.78
41513;BME280;27244;59.940;30.280;2024-01-11T09:20:32;100821.16;;;25.17;27.83
41513;BME280;27244;59.940;30.280;2024-01-11T09:22:59;100824.75;;;25.17;27.94
41513;BME280;27244;59.940;30.280;2024-01-11T09:25:29;100829.63;;;25.17;27.80
41513;BME280;27244;59.940;30.280;2024-01-11T09:27:56;100835.69;;;25.15;27.73
41513;BME280;27244;59.940;30.280;2024-01-11T09:30:23;100836.81;;;25.18;27.94
41513;BME280;27244;59.940;30.280;2024-01-11T09:32:50;100827.13;;;25.19;28.06
41513;BME280;27244;59.940;30.280;2024-01-11T09:35:19;100835.25;;;25.17;27.78
41513;BME280;27244;59.940;30.280;2024-01-11T09:37:46;100856.59;;;25.18;27.95
41513;BME280;27244;59.940;30.280;2024-01-11T09:40:13;100856.16;;;25.19;27.85
41513;BME280;27244;59.940;30.280;2024-01-11T09:42:41;100862.59;;;25.20;27.98
41513;BME280;27244;59.940;30.280;2024-01-11T09:45:12;100872.63;;;25.21;28.10
41513;BME280;27244;59.940;30.280;2024-01-11T09:47:41;100877.13;;;25.18;27.70
41513;BME280;27244;59.940;30.280;2024-01-11T09:50:10;100879.53;;;25.20;27.87
41513;BME280;27244;59.940;30.280;2024-01-11T09:52:45;100876.25;;;25.21;28.03
41513;BME280;27244;59.940;30.280;2024-01-11T09:55:13;100890.81;;;25.20;28.08
41513;BME280;27244;59.940;30.280;2024-01-11T09:57:44;100885.16;;;25.20;28.22
41513;BME280;27244;59.940;30.280;2024-01-11T10:00:13;100879.53;;;25.20;27.79
41513;BME280;27244;59.940;30.280;2024-01-11T10:02:45;100891.59;;;25.20;27.78
41513;BME280;27244;59.940;30.280;2024-01-11T10:05:12;100898.06;;;25.21;27.94
41513;BME280;27244;59.940;30.280;2024-01-11T10:07:42;100893.63;;;25.20;27.89
41513;BME280;27244;59.940;30.280;2024-01-11T10:10:09;100902.09;;;25.20;28.19
41513;BME280;27244;59.940;30.280;2024-01-11T10:12:37;100901.31;;;25.19;27.94
41513;BME280;27244;59.940;30.280;2024-01-11T10:15:05;100915.00;;;25.21;28.16
41513;BME280;27244;59.940;30.280;2024-01-11T10:17:35;100909.34;;;25.21;27.88
41513;BME280;27244;59.940;30.280;2024-01-11T10:20:03;100917.81;;;25.21;28.20
41513;BME280;27244;59.940;30.280;2024-01-11T10:22:30;100921.44;;;25.21;28.16
41513;BME280;27244;59.940;30.280;2024-01-11T10:25:10;100943.34;;;25.30;27.88
41513;BME280;27244;59.940;30.280;2024-01-11T10:27:38;100945.13;;;25.24;27.76
41513;BME280;27244;59.940;30.280;2024-01-11T10:30:08;100941.09;;;25.25;28.19
41513;BME280;27244;59.940;30.280;2024-01-11T10:32:35;100950.31;;;25.25;27.92
41513;BME280;27244;59.940;30.280;2024-01-11T10:35:02;100951.13;;;25.26;27.74
41513;BME280;27244;59.940;30.280;2024-01-11T10:37:31;100950.31;;;25.25;28.12
41513;BME280;27244;59.940;30.280;2024-01-11T10:40:03;100959.94;;;25.28;27.76
41513;BME280;27244;59.940;30.280;2024-01-11T10:42:36;100957.56;;;25.26;27.71
41513;BME280;27244;59.940;30.280;2024-01-11T10:45:11;100975.97;;;25.31;27.84
41513;BME280;27244;59.940;30.280;2024-01-11T10:47:47;100970.88;;;25.26;28.21
41513;BME280;27244;59.940;30.280;2024-01-11T10:50:18;100968.06;;;25.26;27.82
41513;BME280;27244;59.940;30.280;2024-01-11T10:53:02;100970.44;;;25.27;27.68
41513;BME280;27244;59.940;30.280;2024-01-11T10:55:32;100980.03;;;25.30;28.01
41513;BME280;27244;59.940;30.280;2024-01-11T10:58:01;100973.69;;;25.26;28.11
41513;BME280;27244;59.940;30.280;2024-01-11T11:00:29;100982.06;;;25.29;27.72
41513;BME280;27244;59.940;30.280;2024-01-11T11:03:01;100993.81;;;25.28;28.17
41513;BME280;27244;59.940;30.280;2024-01-11T11:05:32;101005.44;;;25.30;27.66
41513;BME280;27244;59.940;30.280;2024-01-11T11:08:01;100996.19;;;25.29;27.81
41513;BME280;27244;59.940;30.280;2024-01-11T11:10:30;101003.84;;;25.29;27.75
41513;BME280;27244;59.940;30.280;2024-01-11T11:12:58;100996.28;;;25.26;27.99
41513;BME280;27244;59.940;30.280;2024-01-11T11:15:28;101002.31;;;25.28;27.75
41513;BME280;27244;59.940;30.280;2024-01-11T11:17:55;101007.47;;;25.29;27.83
41513;BME280;27244;59.940;30.280;2024-01-11T11:20:23;101011.56;;;25.28;28.17
41513;BME280;27244;59.940;30.280;2024-01-11T11:23:03;101021.84;;;25.35;28.09
41513;BME280;27244;59.940;30.280;2024-01-11T11:25:30;101022.75;;;25.32;28.06
41513;BME280;27244;59.940;30.280;2024-01-11T11:27:58;101032.09;;;25.29;27.79
41513;BME280;27244;59.940;30.280;2024-01-11T11:30:28;101032.78;;;25.33;27.74
41513;BME280;27244;59.940;30.280;2024-01-11T11:32:55;101038.44;;;25.33;27.80
41513;BME280;27244;59.940;30.280;2024-01-11T11:35:23;101050.19;;;25.31;27.69
41513;BME280;27244;59.940;30.280;2024-01-11T11:37:55;101045.69;;;25.34;28.02
41513;BME280;27244;59.940;30.280;2024-01-11T11:40:22;101050.56;;;25.46;27.56
41513;BME280;27244;59.940;30.280;2024-01-11T11:43:01;101065.78;;;25.36;27.90
41513;BME280;27244;59.940;30.280;2024-01-11T11:45:30;101061.03;;;25.33;28.08
41513;BME280;27244;59.940;30.280;2024-01-11T11:47:59;101081.25;;;25.31;27.97
41513;BME280;27244;59.940;30.280;2024-01-11T11:50:27;101077.63;;;25.31;27.99
41513;BME280;27244;59.940;30.280;2024-01-11T11:52:57;101085.75;;;25.29;27.78
41513;BME280;27244;59.940;30.280;2024-01-11T11:55:24;101082.91;;;25.29;27.67
41513;BME280;27244;59.940;30.280;2024-01-11T11:57:52;101097.16;;;25.25;28.07
41513;BME280;27244;59.940;30.280;2024-01-11T12:00:20;101104.28;;;25.30;27.88
41513;BME280;27244;59.940;30.280;2024-01-11T12:02:50;101097.84;;;25.29;27.89
41513;BME280;27244;59.940;30.280;2024-01-11T12:05:19;101109.94;;;25.30;27.90
41513;BME280;27244;59.940;30.280;2024-01-11T12:07:46;101119.19;;;25.30;27.85
41513;BME280;27244;59.940;30.280;2024-01-11T12:10:14;101117.97;;;25.31;28.02
41513;BME280;27244;59.940;30.280;2024-01-11T12:12:41;101108.34;;;25.29;27.91
41513;BME280;27244;59.940;30.280;2024-01-11T12:15:09;101133.22;;;25.34;28.09
41513;BME280;27244;59.940;30.280;2024-01-11T12:17:37;101138.88;;;25.34;28.06
41513;BME280;27244;59.940;30.280;2024-01-11T12:20:07;101137.16;;;25.36;28.15
41513;BME280;27244;59.940;30.280;2024-01-11T12:22:34;101138.06;;;25.33;27.80
41513;BME280;27244;59.940;30.280;2024-01-11T12:25:02;101139.66;;;25.34;27.80
41513;BME280;27244;59.940;30.280;2024-01-11T12:27:30;101136.47;;;25.32;27.72
41513;BME280;27244;59.940;30.280;2024-01-11T12:30:01;101151.66;;;25.38;27.69
41513;BME280;27244;59.940;30.280;2024-01-11T12:32:37;101157.31;;;25.38;27.79
41513;BME280;27244;59.940;30.280;2024-01-11T12:35:09;101153.22;;;25.39;28.00
41513;BME280;27244;59.940;30.280;2024-01-11T12:37:55;101157.41;;;25.35;27.74
41513;BME280;27244;59.940;30.280;2024-01-11T12:40:22;101155.00;;;25.33;28.06
41513;BME280;27244;59.940;30.280;2024-01-11T12:42:49;101167.91;;;25.34;28.12
41513;BME280;27244;59.940;30.280;2024-01-11T12:48:02;101184.84;;;25.34;27.84
41513;BME280;27244;59.940;30.280;2024-01-11T12:50:32;101204.16;;;25.36;27.85